Terminal Aerodrome Forecast
Issued by NWS Albany, NY

Home | Current Version | Previous Version | Text Only | Print | Product List | Glossary On
Versions: 1 2 3 4 5 6 7 8 9 10 11 12 13 14 15 16 17 18 19 20 21 22 23 24 25
000
FTUS41 KALY 111004 AAA
TAFPOU
TAF AMD
KPOU 111004Z 1110/1206 26012G20KT P6SM VCSH SCT070 OVC090
     FM111400 27014G22KT P6SM BKN060
     FM120000 29008KT P6SM SCT050=

USA.gov is the U.S. government's official web portal to all federal, state and local government web resources and services.